sensor_id;sensor_type;location;lat;lon;timestamp;temperature;humidity
38237;DHT22;50101;49.438;11.098;2023-03-04T00:02:15;19.60;47.90
38237;DHT22;50101;49.438;11.098;2023-03-04T00:04:42;19.50;47.20
38237;DHT22;50101;49.438;11.098;2023-03-04T00:07:08;19.50;47.80
38237;DHT22;50101;49.438;11.098;2023-03-04T00:09:35;19.50;47.80
38237;DHT22;50101;49.438;11.098;2023-03-04T00:12:02;19.50;47.70
38237;DHT22;50101;49.438;11.098;2023-03-04T00:14:29;19.50;47.80
38237;DHT22;50101;49.438;11.098;2023-03-04T00:16:56;19.50;47.70
38237;DHT22;50101;49.438;11.098;2023-03-04T00:19:22;19.50;47.70
38237;DHT22;50101;49.438;11.098;2023-03-04T00:21:49;19.50;47.80
38237;DHT22;50101;49.438;11.098;2023-03-04T00:24:16;19.50;47.70
38237;DHT22;50101;49.438;11.098;2023-03-04T00:26:42;19.50;47.80
38237;DHT22;50101;49.438;11.098;2023-03-04T00:29:09;19.50;47.60
38237;DHT22;50101;49.438;11.098;2023-03-04T00:31:36;19.50;47.70
38237;DHT22;50101;49.438;11.098;2023-03-04T00:34:02;19.50;47.60
38237;DHT22;50101;49.438;11.098;2023-03-04T00:36:29;19.40;47.60
38237;DHT22;50101;49.438;11.098;2023-03-04T00:38:56;19.40;47.60
38237;DHT22;50101;49.438;11.098;2023-03-04T00:41:22;19.40;47.60
38237;DHT22;50101;49.438;11.098;2023-03-04T00:43:49;19.40;47.60
38237;DHT22;50101;49.438;11.098;2023-03-04T00:46:16;19.40;47.80
38237;DHT22;50101;49.438;11.098;2023-03-04T00:48:43;19.40;47.80
38237;DHT22;50101;49.438;11.098;2023-03-04T00:51:09;19.40;47.80
38237;DHT22;50101;49.438;11.098;2023-03-04T00:53:36;19.40;47.60
38237;DHT22;50101;49.438;11.098;2023-03-04T00:56:02;19.40;47.60
38237;DHT22;50101;49.438;11.098;2023-03-04T00:58:29;19.40;47.70
38237;DHT22;50101;49.438;11.098;2023-03-04T01:00:56;19.30;47.80
38237;DHT22;50101;49.438;11.098;2023-03-04T01:03:23;19.30;47.10
38237;DHT22;50101;49.438;11.098;2023-03-04T01:05:52;19.40;47.70
38237;DHT22;50101;49.438;11.098;2023-03-04T01:08:18;19.40;47.70
38237;DHT22;50101;49.438;11.098;2023-03-04T01:10:45;19.40;47.70
38237;DHT22;50101;49.438;11.098;2023-03-04T01:13:13;19.40;47.60
38237;DHT22;50101;49.438;11.098;2023-03-04T01:15:40;19.40;47.60
38237;DHT22;50101;49.438;11.098;2023-03-04T01:18:07;19.40;47.60
38237;DHT22;50101;49.438;11.098;2023-03-04T01:20:34;19.30;47.60
38237;DHT22;50101;49.438;11.098;2023-03-04T01:23:00;19.30;47.50
38237;DHT22;50101;49.438;11.098;2023-03-04T01:25:27;19.30;47.50
38237;DHT22;50101;49.438;11.098;2023-03-04T01:27:54;19.30;47.50
38237;DHT22;50101;49.438;11.098;2023-03-04T01:30:20;19.30;47.50
38237;DHT22;50101;49.438;11.098;2023-03-04T01:32:47;19.30;47.50
38237;DHT22;50101;49.438;11.098;2023-03-04T01:35:14;19.30;47.60
38237;DHT22;50101;49.438;11.098;2023-03-04T01:37:40;19.30;47.50
38237;DHT22;50101;49.438;11.098;2023-03-04T01:40:08;19.30;47.50
38237;DHT22;50101;49.438;11.098;2023-03-04T01:42:35;19.70;47.80
38237;DHT22;50101;49.438;11.098;2023-03-04T01:45:03;19.30;47.50
38237;DHT22;50101;49.438;11.098;2023-03-04T01:47:32;19.20;47.40
38237;DHT22;50101;49.438;11.098;2023-03-04T01:50:02;19.30;47.50
38237;DHT22;50101;49.438;11.098;2023-03-04T01:52:29;19.20;47.40
38237;DHT22;50101;49.438;11.098;2023-03-04T01:54:56;19.30;47.50
38237;DHT22;50101;49.438;11.098;2023-03-04T01:57:25;19.20;47.40
38237;DHT22;50101;49.438;11.098;2023-03-04T02:02:47;19.20;47.50
38237;DHT22;50101;49.438;11.098;2023-03-04T02:05:15;19.20;47.40
38237;DHT22;50101;49.438;11.098;2023-03-04T02:07:42;19.20;47.40
38237;DHT22;50101;49.438;11.098;2023-03-04T02:10:09;19.20;47.40
38237;DHT22;50101;49.438;11.098;2023-03-04T02:12:36;19.20;47.60
38237;DHT22;50101;49.438;11.098;2023-03-04T02:15:04;19.20;47.40
38237;DHT22;50101;49.438;11.098;2023-03-04T02:17:31;19.20;47.50
38237;DHT22;50101;49.438;11.098;2023-03-04T02:20:46;19.20;47.40
38237;DHT22;50101;49.438;11.098;2023-03-04T02:26:17;19.20;47.40
38237;DHT22;50101;49.438;11.098;2023-03-04T02:28:45;19.20;47.40
38237;DHT22;50101;49.438;11.098;2023-03-04T02:31:33;19.20;47.40
38237;DHT22;50101;49.438;11.098;2023-03-04T02:34:12;19.10;46.80
38237;DHT22;50101;49.438;11.098;2023-03-04T02:36:41;19.20;47.40
38237;DHT22;50101;49.438;11.098;2023-03-04T02:39:22;19.10;47.30
38237;DHT22;50101;49.438;11.098;2023-03-04T02:41:52;19.10;47.30
38237;DHT22;50101;49.438;11.098;2023-03-04T02:44:22;19.10;47.30
38237;DHT22;50101;49.438;11.098;2023-03-04T02:46:49;19.10;47.30
38237;DHT22;50101;49.438;11.098;2023-03-04T02:49:17;19.10;47.40
38237;DHT22;50101;49.438;11.098;2023-03-04T02:51:45;19.10;47.40
38237;DHT22;50101;49.438;11.098;2023-03-04T02:54:19;19.10;46.80
38237;DHT22;50101;49.438;11.098;2023-03-04T02:56:48;19.10;47.30
38237;DHT22;50101;49.438;11.098;2023-03-04T02:59:15;19.10;47.30
38237;DHT22;50101;49.438;11.098;2023-03-04T03:01:42;19.10;47.30
38237;DHT22;50101;49.438;11.098;2023-03-04T03:04:09;19.10;47.30
38237;DHT22;50101;49.438;11.098;2023-03-04T03:06:36;19.10;47.30
38237;DHT22;50101;49.438;11.098;2023-03-04T03:09:02;19.10;47.30
38237;DHT22;50101;49.438;11.098;2023-03-04T03:11:29;19.10;47.30
38237;DHT22;50101;49.438;11.098;2023-03-04T03:13:56;19.00;47.20
38237;DHT22;50101;49.438;11.098;2023-03-04T03:16:23;19.00;47.30
38237;DHT22;50101;49.438;11.098;2023-03-04T03:18:50;19.00;47.20
38237;DHT22;50101;49.438;11.098;2023-03-04T03:21:17;19.00;47.20
38237;DHT22;50101;49.438;11.098;2023-03-04T03:23:44;19.00;47.20
38237;DHT22;50101;49.438;11.098;2023-03-04T03:26:10;19.00;47.20
38237;DHT22;50101;49.438;11.098;2023-03-04T03:28:37;19.00;47.20
38237;DHT22;50101;49.438;11.098;2023-03-04T03:31:04;19.00;47.20
38237;DHT22;50101;49.438;11.098;2023-03-04T03:33:31;19.00;47.20
38237;DHT22;50101;49.438;11.098;2023-03-04T03:35:58;19.00;47.30
38237;DHT22;50101;49.438;11.098;2023-03-04T03:38:26;19.00;47.20
38237;DHT22;50101;49.438;11.098;2023-03-04T03:40:53;19.00;47.20
38237;DHT22;50101;49.438;11.098;2023-03-04T03:43:19;19.00;47.20
38237;DHT22;50101;49.438;11.098;2023-03-04T03:45:46;19.00;47.20
38237;DHT22;50101;49.438;11.098;2023-03-04T03:48:13;19.00;47.20
38237;DHT22;50101;49.438;11.098;2023-03-04T03:50:40;19.00;47.30
38237;DHT22;50101;49.438;11.098;2023-03-04T03:53:06;19.00;47.20
38237;DHT22;50101;49.438;11.098;2023-03-04T03:55:33;19.00;47.30
38237;DHT22;50101;49.438;11.098;2023-03-04T03:57:59;18.90;47.10
38237;DHT22;50101;49.438;11.098;2023-03-04T04:00:26;18.90;47.20
38237;DHT22;50101;49.438;11.098;2023-03-04T04:02:54;18.90;47.10
38237;DHT22;50101;49.438;11.098;2023-03-04T04:05:22;18.90;47.20
38237;DHT22;50101;49.438;11.098;2023-03-04T04:07:49;18.90;47.10
38237;DHT22;50101;49.438;11.098;2023-03-04T04:10:17;18.90;47.10
38237;DHT22;50101;49.438;11.098;2023-03-04T04:12:44;18.90;47.10
38237;DHT22;50101;49.438;11.098;2023-03-04T04:15:11;18.90;47.10
38237;DHT22;50101;49.438;11.098;2023-03-04T04:17:38;18.90;47.10
38237;DHT22;50101;49.438;11.098;2023-03-04T04:20:06;18.90;47.10
38237;DHT22;50101;49.438;11.098;2023-03-04T04:22:33;18.90;47.10
38237;DHT22;50101;49.438;11.098;2023-03-04T04:25:00;18.90;47.10
38237;DHT22;50101;49.438;11.098;2023-03-04T04:27:27;18.90;47.40
38237;DHT22;50101;49.438;11.098;2023-03-04T04:29:53;18.90;47.10
38237;DHT22;50101;49.438;11.098;2023-03-04T04:32:20;18.90;47.10
38237;DHT22;50101;49.438;11.098;2023-03-04T04:34:47;18.90;47.20
38237;DHT22;50101;49.438;11.098;2023-03-04T04:37:13;18.90;47.10
38237;DHT22;50101;49.438;11.098;2023-03-04T04:39:40;18.80;47.10
38237;DHT22;50101;49.438;11.098;2023-03-04T04:42:09;18.80;47.10
38237;DHT22;50101;49.438;11.098;2023-03-04T04:44:36;18.80;47.10
38237;DHT22;50101;49.438;11.098;2023-03-04T04:47:05;18.80;47.10
38237;DHT22;50101;49.438;11.098;2023-03-04T04:49:32;18.80;47.10
38237;DHT22;50101;49.438;11.098;2023-03-04T04:51:59;18.80;47.10
38237;DHT22;50101;49.438;11.098;2023-03-04T04:54:26;18.80;47.10
38237;DHT22;50101;49.438;11.098;2023-03-04T04:56:52;18.80;47.10
38237;DHT22;50101;49.438;11.098;2023-03-04T04:59:19;18.80;47.10
38237;DHT22;50101;49.438;11.098;2023-03-04T05:01:46;18.80;47.10
38237;DHT22;50101;49.438;11.098;2023-03-04T05:04:13;18.80;47.10
38237;DHT22;50101;49.438;11.098;2023-03-04T05:06:40;18.80;47.10
38237;DHT22;50101;49.438;11.098;2023-03-04T05:09:07;18.80;47.10
38237;DHT22;50101;49.438;11.098;2023-03-04T05:11:33;18.80;47.10
38237;DHT22;50101;49.438;11.098;2023-03-04T05:14:00;18.80;47.10
38237;DHT22;50101;49.438;11.098;2023-03-04T05:16:27;18.70;47.00
38237;DHT22;50101;49.438;11.098;2023-03-04T05:18:53;18.80;47.10
38237;DHT22;50101;49.438;11.098;2023-03-04T05:21:20;18.80;47.10
38237;DHT22;50101;49.438;11.098;2023-03-04T05:23:47;18.80;47.10
38237;DHT22;50101;49.438;11.098;2023-03-04T05:26:16;18.70;47.00
38237;DHT22;50101;49.438;11.098;2023-03-04T05:28:43;18.70;47.00
38237;DHT22;50101;49.438;11.098;2023-03-04T05:31:10;18.70;47.00
38237;DHT22;50101;49.438;11.098;2023-03-04T05:33:37;18.80;47.10
38237;DHT22;50101;49.438;11.098;2023-03-04T05:36:05;18.70;47.00
38237;DHT22;50101;49.438;11.098;2023-03-04T05:38:32;18.70;47.00
38237;DHT22;50101;49.438;11.098;2023-03-04T05:41:02;18.70;47.00
38237;DHT22;50101;49.438;11.098;2023-03-04T05:43:30;18.70;47.00
38237;DHT22;50101;49.438;11.098;2023-03-04T05:45:57;18.70;47.00
38237;DHT22;50101;49.438;11.098;2023-03-04T05:48:23;18.70;47.00
38237;DHT22;50101;49.438;11.098;2023-03-04T05:50:58;18.70;47.00
38237;DHT22;50101;49.438;11.098;2023-03-04T05:53:25;18.70;47.00
38237;DHT22;50101;49.438;11.098;2023-03-04T05:55:52;18.70;47.00
38237;DHT22;50101;49.438;11.098;2023-03-04T05:58:19;18.70;47.00
38237;DHT22;50101;49.438;11.098;2023-03-04T06:00:46;18.70;47.00
38237;DHT22;50101;49.438;11.098;2023-03-04T06:03:17;18.70;47.00
38237;DHT22;50101;49.438;11.098;2023-03-04T06:05:44;16.90;39.60
38237;DHT22;50101;49.438;11.098;2023-03-04T06:08:11;14.20;39.30
38237;DHT22;50101;49.438;11.098;2023-03-04T06:10:39;13.10;40.40
38237;DHT22;50101;49.438;11.098;2023-03-04T06:13:07;12.30;41.30
38237;DHT22;50101;49.438;11.098;2023-03-04T06:15:34;12.20;41.50
38237;DHT22;50101;49.438;11.098;2023-03-04T06:18:00;13.60;42.40
38237;DHT22;50101;49.438;11.098;2023-03-04T06:20:27;15.00;42.30
38237;DHT22;50101;49.438;11.098;2023-03-04T06:22:54;16.00;41.60
38237;DHT22;50101;49.438;11.098;2023-03-04T06:25:21;16.70;40.90
38237;DHT22;50101;49.438;11.098;2023-03-04T06:27:47;17.20;41.00
38237;DHT22;50101;49.438;11.098;2023-03-04T06:30:17;17.50;41.20
38237;DHT22;50101;49.438;11.098;2023-03-04T06:32:43;17.70;41.20
38237;DHT22;50101;49.438;11.098;2023-03-04T06:35:12;17.80;41.50
38237;DHT22;50101;49.438;11.098;2023-03-04T06:37:39;17.90;41.50
38237;DHT22;50101;49.438;11.098;2023-03-04T06:40:06;18.00;41.80
38237;DHT22;50101;49.438;11.098;2023-03-04T06:42:34;18.10;42.00
38237;DHT22;50101;49.438;11.098;2023-03-04T06:45:02;18.20;42.10
38237;DHT22;50101;49.438;11.098;2023-03-04T06:47:29;18.30;42.40
38237;DHT22;50101;49.438;11.098;2023-03-04T06:49:55;18.30;42.60
38237;DHT22;50101;49.438;11.098;2023-03-04T06:52:23;18.40;42.90
38237;DHT22;50101;49.438;11.098;2023-03-04T06:54:49;18.40;42.80
38237;DHT22;50101;49.438;11.098;2023-03-04T06:57:16;18.50;42.90
38237;DHT22;50101;49.438;11.098;2023-03-04T06:59:43;18.50;43.00
38237;DHT22;50101;49.438;11.098;2023-03-04T07:02:13;18.50;43.10
38237;DHT22;50101;49.438;11.098;2023-03-04T07:04:39;19.20;43.70
38237;DHT22;50101;49.438;11.098;2023-03-04T07:07:06;18.60;43.40
38237;DHT22;50101;49.438;11.098;2023-03-04T07:09:33;18.70;43.40
38237;DHT22;50101;49.438;11.098;2023-03-04T07:11:59;18.70;43.60
38237;DHT22;50101;49.438;11.098;2023-03-04T07:14:26;18.70;43.70
38237;DHT22;50101;49.438;11.098;2023-03-04T07:16:53;18.70;43.80
38237;DHT22;50101;49.438;11.098;2023-03-04T07:19:20;18.80;43.90
38237;DHT22;50101;49.438;11.098;2023-03-04T07:21:47;18.80;43.90
38237;DHT22;50101;49.438;11.098;2023-03-04T07:24:14;18.80;44.00
38237;DHT22;50101;49.438;11.098;2023-03-04T07:26:41;18.80;44.10
38237;DHT22;50101;49.438;11.098;2023-03-04T07:29:08;18.90;44.10
38237;DHT22;50101;49.438;11.098;2023-03-04T07:31:35;18.90;44.30
38237;DHT22;50101;49.438;11.098;2023-03-04T07:34:04;18.80;44.30
38237;DHT22;50101;49.438;11.098;2023-03-04T07:36:34;18.90;44.30
38237;DHT22;50101;49.438;11.098;2023-03-04T07:39:01;18.90;44.30
38237;DHT22;50101;49.438;11.098;2023-03-04T07:41:29;18.90;44.30
38237;DHT22;50101;49.438;11.098;2023-03-04T07:43:57;19.00;44.50
38237;DHT22;50101;49.438;11.098;2023-03-04T07:46:24;19.00;44.50
38237;DHT22;50101;49.438;11.098;2023-03-04T07:48:51;19.00;44.50
38237;DHT22;50101;49.438;11.098;2023-03-04T07:51:19;19.00;45.20
38237;DHT22;50101;49.438;11.098;2023-03-04T07:53:50;19.10;44.60
38237;DHT22;50101;49.438;11.098;2023-03-04T07:56:19;19.10;44.60
38237;DHT22;50101;49.438;11.098;2023-03-04T07:58:46;19.10;44.70
38237;DHT22;50101;49.438;11.098;2023-03-04T08:01:16;19.10;44.70
38237;DHT22;50101;49.438;11.098;2023-03-04T08:03:43;19.10;44.80
38237;DHT22;50101;49.438;11.098;2023-03-04T08:06:14;19.20;44.80
38237;DHT22;50101;49.438;11.098;2023-03-04T08:08:41;19.20;45.50
38237;DHT22;50101;49.438;11.098;2023-03-04T08:11:17;19.20;45.00
38237;DHT22;50101;49.438;11.098;2023-03-04T08:13:44;19.20;45.10
38237;DHT22;50101;49.438;11.098;2023-03-04T08:16:17;19.20;45.10
38237;DHT22;50101;49.438;11.098;2023-03-04T08:18:46;19.30;45.20
38237;DHT22;50101;49.438;11.098;2023-03-04T08:21:15;19.30;45.20
38237;DHT22;50101;49.438;11.098;2023-03-04T08:23:45;19.30;45.30
38237;DHT22;50101;49.438;11.098;2023-03-04T08:26:17;19.30;45.40
38237;DHT22;50101;49.438;11.098;2023-03-04T08:28:44;19.30;45.50
38237;DHT22;50101;49.438;11.098;2023-03-04T08:31:14;19.40;45.60
38237;DHT22;50101;49.438;11.098;2023-03-04T08:33:42;19.40;45.80
38237;DHT22;50101;49.438;11.098;2023-03-04T08:36:09;19.40;45.70
38237;DHT22;50101;49.438;11.098;2023-03-04T08:38:36;19.40;45.80
38237;DHT22;50101;49.438;11.098;2023-03-04T08:41:03;19.50;45.80
38237;DHT22;50101;49.438;11.098;2023-03-04T08:43:31;19.40;45.80
38237;DHT22;50101;49.438;11.098;2023-03-04T08:45:58;19.50;45.90
38237;DHT22;50101;49.438;11.098;2023-03-04T08:48:26;19.50;46.10
38237;DHT22;50101;49.438;11.098;2023-03-04T08:50:52;19.60;46.30
38237;DHT22;50101;49.438;11.098;2023-03-04T08:53:19;19.60;46.40
38237;DHT22;50101;49.438;11.098;2023-03-04T08:55:47;19.70;46.50
38237;DHT22;50101;49.438;11.098;2023-03-04T08:58:14;19.70;46.60
38237;DHT22;50101;49.438;11.098;2023-03-04T09:00:44;19.80;46.70
38237;DHT22;50101;49.438;11.098;2023-03-04T09:03:14;19.80;46.80
38237;DHT22;50101;49.438;11.098;2023-03-04T09:05:43;19.80;46.90
38237;DHT22;50101;49.438;11.098;2023-03-04T09:08:10;19.80;47.30
38237;DHT22;50101;49.438;11.098;2023-03-04T09:10:36;19.80;47.70
38237;DHT22;50101;49.438;11.098;2023-03-04T09:13:03;19.80;47.80
38237;DHT22;50101;49.438;11.098;2023-03-04T09:15:30;19.80;47.90
38237;DHT22;50101;49.438;11.098;2023-03-04T09:17:56;19.80;47.90
38237;DHT22;50101;49.438;11.098;2023-03-04T09:20:23;19.80;47.90
38237;DHT22;50101;49.438;11.098;2023-03-04T09:22:50;19.90;48.00
38237;DHT22;50101;49.438;11.098;2023-03-04T09:25:16;19.80;47.90
38237;DHT22;50101;49.438;11.098;2023-03-04T09:27:43;19.90;48.00
38237;DHT22;50101;49.438;11.098;2023-03-04T09:30:10;20.00;48.10
38237;DHT22;50101;49.438;11.098;2023-03-04T09:32:37;19.90;47.90
38237;DHT22;50101;49.438;11.098;2023-03-04T09:35:05;19.90;47.90
38237;DHT22;50101;49.438;11.098;2023-03-04T09:37:32;19.90;47.80
38237;DHT22;50101;49.438;11.098;2023-03-04T09:39:59;19.90;47.60
38237;DHT22;50101;49.438;11.098;2023-03-04T09:42:37;20.00;47.60
38237;DHT22;50101;49.438;11.098;2023-03-04T09:45:15;20.00;47.50
38237;DHT22;50101;49.438;11.098;2023-03-04T09:47:43;20.00;47.50
38237;DHT22;50101;49.438;11.098;2023-03-04T09:50:11;20.10;47.60
38237;DHT22;50101;49.438;11.098;2023-03-04T09:55:41;20.10;47.60
38237;DHT22;50101;49.438;11.098;2023-03-04T10:01:30;20.10;47.80
38237;DHT22;50101;49.438;11.098;2023-03-04T10:04:05;20.20;47.20
38237;DHT22;50101;49.438;11.098;2023-03-04T10:06:38;20.20;47.70
38237;DHT22;50101;49.438;11.098;2023-03-04T10:09:16;20.20;47.80
38237;DHT22;50101;49.438;11.098;2023-03-04T10:12:06;20.30;47.90
38237;DHT22;50101;49.438;11.098;2023-03-04T10:14:42;20.30;48.00
38237;DHT22;50101;49.438;11.098;2023-03-04T10:17:18;20.30;48.00
38237;DHT22;50101;49.438;11.098;2023-03-04T10:22:43;20.30;48.00
38237;DHT22;50101;49.438;11.098;2023-03-04T10:30:42;20.40;48.20
38237;DHT22;50101;49.438;11.098;2023-03-04T10:33:18;20.50;48.40
38237;DHT22;50101;49.438;11.098;2023-03-04T10:36:01;20.40;48.40
38237;DHT22;50101;49.438;11.098;2023-03-04T10:38:34;20.40;48.40
38237;DHT22;50101;49.438;11.098;2023-03-04T10:41:15;20.50;48.50
38237;DHT22;50101;49.438;11.098;2023-03-04T10:43:50;20.50;48.50
38237;DHT22;50101;49.438;11.098;2023-03-04T10:46:27;20.50;48.50
38237;DHT22;50101;49.438;11.098;2023-03-04T10:48:54;20.50;49.10
38237;DHT22;50101;49.438;11.098;2023-03-04T10:51:26;20.60;48.90
38237;DHT22;50101;49.438;11.098;2023-03-04T10:54:23;20.60;48.60
38237;DHT22;50101;49.438;11.098;2023-03-04T10:56:57;20.60;48.60
38237;DHT22;50101;49.438;11.098;2023-03-04T10:59:43;20.60;48.60
38237;DHT22;50101;49.438;11.098;2023-03-04T11:07:49;20.70;48.70
38237;DHT22;50101;49.438;11.098;2023-03-04T11:10:29;20.70;48.70
38237;DHT22;50101;49.438;11.098;2023-03-04T11:13:05;20.70;48.70
38237;DHT22;50101;49.438;11.098;2023-03-04T11:15:51;20.70;48.70
38237;DHT22;50101;49.438;11.098;2023-03-04T11:18:33;20.70;48.70
38237;DHT22;50101;49.438;11.098;2023-03-04T11:21:05;20.70;48.70
38237;DHT22;50101;49.438;11.098;2023-03-04T11:23:41;20.70;48.70
38237;DHT22;50101;49.438;11.098;2023-03-04T11:26:13;20.70;48.70
38237;DHT22;50101;49.438;11.098;2023-03-04T11:28:50;20.80;48.70
38237;DHT22;50101;49.438;11.098;2023-03-04T11:31:22;20.70;48.70
38237;DHT22;50101;49.438;11.098;2023-03-04T11:34:07;20.70;48.70
38237;DHT22;50101;49.438;11.098;2023-03-04T11:36:58;20.80;48.70
38237;DHT22;50101;49.438;11.098;2023-03-04T11:39:35;20.80;48.70
38237;DHT22;50101;49.438;11.098;2023-03-04T11:44:51;20.80;48.70
38237;DHT22;50101;49.438;11.098;2023-03-04T11:47:43;20.80;48.70
38237;DHT22;50101;49.438;11.098;2023-03-04T11:55:42;20.80;48.70
38237;DHT22;50101;49.438;11.098;2023-03-04T12:01:13;20.80;48.80
38237;DHT22;50101;49.438;11.098;2023-03-04T12:06:52;20.80;48.80
38237;DHT22;50101;49.438;11.098;2023-03-04T12:09:45;20.90;48.90
38237;DHT22;50101;49.438;11.098;2023-03-04T12:12:58;20.80;49.00
38237;DHT22;50101;49.438;11.098;2023-03-04T12:18:38;20.70;49.20
38237;DHT22;50101;49.438;11.098;2023-03-04T12:35:37;20.50;49.20
38237;DHT22;50101;49.438;11.098;2023-03-04T12:38:29;20.40;49.10
38237;DHT22;50101;49.438;11.098;2023-03-04T12:43:51;20.40;49.20
38237;DHT22;50101;49.438;11.098;2023-03-04T12:46:36;20.40;49.10
38237;DHT22;50101;49.438;11.098;2023-03-04T12:49:40;20.40;49.10
38237;DHT22;50101;49.438;11.098;2023-03-04T12:54:49;20.40;48.60
38237;DHT22;50101;49.438;11.098;2023-03-04T12:57:19;20.40;49.20
38237;DHT22;50101;49.438;11.098;2023-03-04T13:08:50;20.70;49.10
38237;DHT22;50101;49.438;11.098;2023-03-04T13:14:25;20.70;49.20
38237;DHT22;50101;49.438;11.098;2023-03-04T13:20:23;20.80;49.20
38237;DHT22;50101;49.438;11.098;2023-03-04T13:28:28;20.60;49.70
38237;DHT22;50101;49.438;11.098;2023-03-04T13:36:06;20.70;49.30
38237;DHT22;50101;49.438;11.098;2023-03-04T13:39:23;20.80;49.40
38237;DHT22;50101;49.438;11.098;2023-03-04T13:41:51;20.80;49.40
38237;DHT22;50101;49.438;11.098;2023-03-04T13:44:34;20.80;49.40
38237;DHT22;50101;49.438;11.098;2023-03-04T13:47:09;20.80;49.50
38237;DHT22;50101;49.438;11.098;2023-03-04T13:49:40;20.70;49.40
38237;DHT22;50101;49.438;11.098;2023-03-04T13:52:36;20.80;49.40
38237;DHT22;50101;49.438;11.098;2023-03-04T13:55:38;20.80;49.40
38237;DHT22;50101;49.438;11.098;2023-03-04T13:58:22;20.90;49.60
38237;DHT22;50101;49.438;11.098;2023-03-04T14:00:53;20.90;50.20
38237;DHT22;50101;49.438;11.098;2023-03-04T14:03:26;20.90;50.10
38237;DHT22;50101;49.438;11.098;2023-03-04T14:06:16;20.80;49.80
38237;DHT22;50101;49.438;11.098;2023-03-04T14:08:44;20.90;49.70
38237;DHT22;50101;49.438;11.098;2023-03-04T14:11:23;20.80;49.90
38237;DHT22;50101;49.438;11.098;2023-03-04T14:13:50;20.60;49.90
38237;DHT22;50101;49.438;11.098;2023-03-04T14:16:21;20.50;49.90
38237;DHT22;50101;49.438;11.098;2023-03-04T14:19:03;20.50;49.60
38237;DHT22;50101;49.438;11.098;2023-03-04T14:21:32;20.50;49.80
38237;DHT22;50101;49.438;11.098;2023-03-04T14:24:13;20.40;49.60
38237;DHT22;50101;49.438;11.098;2023-03-04T14:26:40;20.40;49.50
38237;DHT22;50101;49.438;11.098;2023-03-04T14:29:25;20.40;49.50
38237;DHT22;50101;49.438;11.098;2023-03-04T14:31:53;20.40;49.30
38237;DHT22;50101;49.438;11.098;2023-03-04T14:34:47;20.40;49.30
38237;DHT22;50101;49.438;11.098;2023-03-04T14:37:21;20.30;49.20
38237;DHT22;50101;49.438;11.098;2023-03-04T14:39:55;20.30;49.20
38237;DHT22;50101;49.438;11.098;2023-03-04T14:42:26;20.40;49.20
38237;DHT22;50101;49.438;11.098;2023-03-04T14:44:56;20.30;49.10
38237;DHT22;50101;49.438;11.098;2023-03-04T14:47:35;20.30;49.00
38237;DHT22;50101;49.438;11.098;2023-03-04T14:50:15;20.30;49.10
38237;DHT22;50101;49.438;11.098;2023-03-04T14:53:02;20.30;49.10
38237;DHT22;50101;49.438;11.098;2023-03-04T14:55:29;20.30;49.00
38237;DHT22;50101;49.438;11.098;2023-03-04T14:58:20;20.30;49.00
38237;DHT22;50101;49.438;11.098;2023-03-04T15:00:47;20.30;49.00
38237;DHT22;50101;49.438;11.098;2023-03-04T15:03:27;20.20;49.00
38237;DHT22;50101;49.438;11.098;2023-03-04T15:05:54;20.30;49.00
38237;DHT22;50101;49.438;11.098;2023-03-04T15:08:36;20.20;49.00
38237;DHT22;50101;49.438;11.098;2023-03-04T15:11:04;20.20;49.00
38237;DHT22;50101;49.438;11.098;2023-03-04T15:13:49;20.20;49.10
38237;DHT22;50101;49.438;11.098;2023-03-04T15:16:19;20.20;49.00
38237;DHT22;50101;49.438;11.098;2023-03-04T15:21:40;20.20;49.10
38237;DHT22;50101;49.438;11.098;2023-03-04T15:24:08;20.20;49.00
38237;DHT22;50101;49.438;11.098;2023-03-04T15:26:38;20.20;48.90
38237;DHT22;50101;49.438;11.098;2023-03-04T15:29:17;20.20;49.20
38237;DHT22;50101;49.438;11.098;2023-03-04T15:31:45;20.20;49.10
38237;DHT22;50101;49.438;11.098;2023-03-04T15:34:18;20.20;49.20
38237;DHT22;50101;49.438;11.098;2023-03-04T15:36:47;20.20;49.20
38237;DHT22;50101;49.438;11.098;2023-03-04T15:39:16;20.10;49.00
38237;DHT22;50101;49.438;11.098;2023-03-04T15:41:43;20.20;49.20
38237;DHT22;50101;49.438;11.098;2023-03-04T15:44:12;20.20;49.80
38237;DHT22;50101;49.438;11.098;2023-03-04T15:46:38;20.20;49.90
38237;DHT22;50101;49.438;11.098;2023-03-04T15:49:05;20.30;50.00
38237;DHT22;50101;49.438;11.098;2023-03-04T15:51:32;20.20;50.00
38237;DHT22;50101;49.438;11.098;2023-03-04T15:54:00;20.20;50.00
38237;DHT22;50101;49.438;11.098;2023-03-04T15:56:29;20.20;50.00
38237;DHT22;50101;49.438;11.098;2023-03-04T15:59:16;20.10;50.00
38237;DHT22;50101;49.438;11.098;2023-03-04T16:01:43;20.10;50.00
38237;DHT22;50101;49.438;11.098;2023-03-04T16:04:12;20.10;50.10
38237;DHT22;50101;49.438;11.098;2023-03-04T16:06:46;20.10;51.10
38237;DHT22;50101;49.438;11.098;2023-03-04T16:09:15;20.20;51.30
38237;DHT22;50101;49.438;11.098;2023-03-04T16:11:44;20.20;51.20
38237;DHT22;50101;49.438;11.098;2023-03-04T16:14:13;20.10;50.90
38237;DHT22;50101;49.438;11.098;2023-03-04T16:16:43;20.00;51.10
38237;DHT22;50101;49.438;11.098;2023-03-04T16:19:11;20.00;50.90
38237;DHT22;50101;49.438;11.098;2023-03-04T16:21:38;20.00;51.00
38237;DHT22;50101;49.438;11.098;2023-03-04T16:24:16;20.00;50.60
38237;DHT22;50101;49.438;11.098;2023-03-04T16:26:44;20.00;50.60
38237;DHT22;50101;49.438;11.098;2023-03-04T16:29:10;20.00;50.80
38237;DHT22;50101;49.438;11.098;2023-03-04T16:31:37;19.90;50.60
38237;DHT22;50101;49.438;11.098;2023-03-04T16:34:04;19.90;50.80
38237;DHT22;50101;49.438;11.098;2023-03-04T16:36:30;19.90;50.80
38237;DHT22;50101;49.438;11.098;2023-03-04T16:39:01;19.90;50.80
38237;DHT22;50101;49.438;11.098;2023-03-04T16:41:29;19.90;50.70
38237;DHT22;50101;49.438;11.098;2023-03-04T16:43:58;19.80;50.40
38237;DHT22;50101;49.438;11.098;2023-03-04T16:46:25;19.90;50.50
38237;DHT22;50101;49.438;11.098;2023-03-04T16:48:52;19.90;50.60
38237;DHT22;50101;49.438;11.098;2023-03-04T16:51:20;20.00;50.30
38237;DHT22;50101;49.438;11.098;2023-03-04T16:53:52;20.10;50.10
38237;DHT22;50101;49.438;11.098;2023-03-04T16:56:20;20.20;50.10
38237;DHT22;50101;49.438;11.098;2023-03-04T16:58:47;20.30;50.10
38237;DHT22;50101;49.438;11.098;2023-03-04T17:01:22;20.30;50.00
38237;DHT22;50101;49.438;11.098;2023-03-04T17:03:49;20.40;50.00
38237;DHT22;50101;49.438;11.098;2023-03-04T17:06:16;20.40;50.10
38237;DHT22;50101;49.438;11.098;2023-03-04T17:08:43;20.40;50.00